Charter Quote
Worldwide +1-877-727-2538 Call
Select Language Lang
SAFETY RELIABILITY EXPERIENCE

Private Jet Charter Services - Longdongbao (ZUGY)

Paramount Business Jets offers private jet charter flights and luxury airliner charters to and from Longdongbao.

AIRPORT INFORMATION
ICAOZUGY
LOCATIONGuiyang, China
FACILITY TYPEAIRPORT

At Paramount Business Jets you can hire chartered private jets to and from Longdongbao with as little as 4 hours of notice. All flights booked via Paramount Business Jets are operated by certified direct air carriers that meet and exceed the FAA part 135 and 121 protocol or a foreign equivalent safety authority. Furthermore, Paramount Business Jets subscribes to ARGUS for their third party safety checks of operators, aircraft, and crews prior each and every flight to and from Longdongbao and worldwide.

  • Quote a trip using Longdongbao or call us 24/7 - 365 days a year at +1-877-727-2538.
Questions? Call +1-877-727-2538

METAR Weather Data at Longdongbao, ZUGY

STATIONZUGY
OBSERVEDTue Jul 16, 03:00 UTC
NOWTue Jul 16, 04:01 UTC
AGE61 min ago
WINDSSW at 13 mph
VISIBILITY16 miles
CLOUDSovercast
TEMP77°F (25°C)
DEWPT70°F (21°C)
HUMIDITY79%
BAROMETER1010 hPa (29.83 in Hg)
METARZUGY 160300Z 20006MPS 9999 BKN020 OVC033 25/21 Q1010 NOSIG

Call us on +1-877-727-2538 (24 Hours) to Hire a Private Jet or Get a Quick Quote.

Find Airports Near any Location

Processing
...